Time;durP1;ratioP1;P1;durP2;ratioP2;P2;SDS_P1;SDS_P2;PMS_P1;PMS_P2;Temp;Humidity;BMP_temperature;BMP_pressure;BME280_temperature;BME280_humidity;BME280_pressure;Samples;Min_cycle;Max_cycle;Signal;HPM_P1;HPM_P2
2023/03/23 00:00:58;;;;;;;;;;;;;;;20.33;49.31;100088.25;4961295;28;3274;-70
2023/03/23 00:03:26;;;;;;;;;;;;;;;20.31;49.49;100086.03;4955286;28;3340;-70
2023/03/23 00:05:51;;;;;;;;;;;;;;;20.31;49.29;100074.53;4964452;28;2884;-70
2023/03/23 00:08:17;;;;;;;;;;;;;;;20.28;49.54;100075.88;4965871;28;2732;-70
2023/03/23 00:10:42;;;;;;;;;;;;;;;20.30;49.46;100081.69;4960843;28;3017;-70
2023/03/23 00:13:08;;;;;;;;;;;;;;;20.29;49.44;100086.72;4964278;28;3152;-69
2023/03/23 00:15:35;;;;;;;;;;;;;;;20.30;49.37;100085.31;4966161;28;3021;-70
2023/03/23 00:18:04;;;;;;;;;;;;;;;20.29;49.47;100083.09;4961719;28;3174;-69
2023/03/23 00:20:39;;;;;;;;;;;;;;;20.28;49.41;100082.34;4966457;28;1805;-70
2023/03/23 00:23:04;;;;;;;;;;;;;;;20.27;49.54;100074.38;4964446;28;3174;-69
2023/03/23 00:25:30;;;;;;;;;;;;;;;20.28;49.45;100073.00;4961076;28;2993;-69
2023/03/23 00:27:56;;;;;;;;;;;;;;;20.28;49.40;100070.13;4960880;28;3144;-70
2023/03/23 00:30:21;;;;;;;;;;;;;;;20.26;49.39;100067.16;4964504;28;3423;-70
2023/03/23 00:32:48;;;;;;;;;;;;;;;20.25;49.40;100060.69;4958450;28;3038;-69
2023/03/23 00:35:13;;;;;;;;;;;;;;;20.27;49.44;100062.88;4963705;28;3148;-69
2023/03/23 00:37:39;;;;;;;;;;;;;;;20.26;49.46;100055.69;4964643;28;2681;-69
2023/03/23 00:40:09;;;;;;;;;;;;;;;20.26;49.37;100055.69;4964093;28;2914;-69
2023/03/23 00:42:37;;;;;;;;;;;;;;;20.25;49.41;100054.94;4965737;28;2334;-70
2023/03/23 00:45:10;;;;;;;;;;;;;;;20.26;49.55;100047.06;4959644;28;3085;-69
2023/03/23 00:47:35;;;;;;;;;;;;;;;20.25;49.46;100048.47;4964772;28;3010;-70
2023/03/23 00:50:03;;;;;;;;;;;;;;;20.25;49.47;100039.84;4965887;28;2195;-69
2023/03/23 00:52:28;;;;;;;;;;;;;;;20.23;49.45;100028.28;4960033;28;3314;-69
2023/03/23 00:54:53;;;;;;;;;;;;;;;20.22;49.33;100018.91;4964953;28;2689;-69
2023/03/23 00:57:19;;;;;;;;;;;;;;;20.25;49.50;100042.72;4964417;28;2767;-70
2023/03/23 00:59:45;;;;;;;;;;;;;;;20.24;49.50;100029.72;4967726;28;1793;-70
2023/03/23 01:02:10;;;;;;;;;;;;;;;20.22;49.42;100021.75;4948231;28;3090;-69
2023/03/23 01:04:37;;;;;;;;;;;;;;;20.21;49.36;100025.31;4963541;28;2868;-70
2023/03/23 01:07:04;;;;;;;;;;;;;;;20.20;49.55;100020.97;4963352;28;3611;-70
2023/03/23 01:09:29;;;;;;;;;;;;;;;20.20;49.42;100020.97;4947814;28;2613;-70
2023/03/23 01:11:55;;;;;;;;;;;;;;;20.20;49.62;100029.59;4959688;28;2735;-69
2023/03/23 01:14:21;;;;;;;;;;;;;;;20.18;49.50;100015.91;4964213;28;2476;-69
2023/03/23 01:16:49;;;;;;;;;;;;;;;20.18;49.44;100006.53;4941695;28;2830;-69
2023/03/23 01:19:15;;;;;;;;;;;;;;;20.18;49.46;100003.66;4961824;28;3369;-70
2023/03/23 01:21:40;;;;;;;;;;;;;;;20.17;49.48;100007.94;4960403;28;3026;-70
2023/03/23 01:24:06;;;;;;;;;;;;;;;20.19;49.42;100002.25;4966537;28;1698;-70
2023/03/23 01:26:31;;;;;;;;;;;;;;;20.18;49.51;100009.41;4962383;28;2767;-70
2023/03/23 01:28:56;;;;;;;;;;;;;;;20.18;49.35;100013.03;4962562;28;2919;-69
2023/03/23 01:31:22;;;;;;;;;;;;;;;20.17;49.54;100008.66;4965703;28;2177;-69
2023/03/23 01:33:49;;;;;;;;;;;;;;;20.15;49.55;100002.84;4949924;28;1737;-69
2023/03/23 01:36:15;;;;;;;;;;;;;;;20.17;49.42;100013.69;4961997;28;3002;-69
2023/03/23 01:38:45;;;;;;;;;;;;;;;20.15;49.45;100005.72;4944314;28;2868;-70
2023/03/23 01:41:11;;;;;;;;;;;;;;;20.15;49.57;100010.75;4964392;28;2692;-70
2023/03/23 01:43:53;;;;;;;;;;;;;;;20.15;49.57;100005.72;4960093;28;2886;-69
2023/03/23 01:46:18;;;;;;;;;;;;;;;20.14;49.57;99992.03;4947555;28;1678;-69
2023/03/23 01:48:45;;;;;;;;;;;;;;;20.13;49.69;99981.94;4960742;28;3119;-70
2023/03/23 01:51:14;;;;;;;;;;;;;;;20.12;49.69;99991.97;4956345;28;3667;-70
2023/03/23 01:53:44;;;;;;;;;;;;;;;20.12;49.64;99995.56;4942428;28;2700;-70
2023/03/23 01:56:11;;;;;;;;;;;;;;;20.14;49.58;99994.91;4945796;28;2186;-70
2023/03/23 01:58:36;;;;;;;;;;;;;;;20.12;49.50;99978.31;4963701;28;1706;-69
2023/03/23 02:01:03;;;;;;;;;;;;;;;20.11;49.51;99976.09;4944767;28;2863;-70
2023/03/23 02:03:30;;;;;;;;;;;;;;;20.11;49.54;99978.97;4945556;28;2767;-70
2023/03/23 02:05:58;;;;;;;;;;;;;;;20.09;49.60;99983.28;4935933;28;3078;-70
2023/03/23 02:08:32;;;;;;;;;;;;;;;20.09;49.69;99986.16;4924132;28;2687;-70
2023/03/23 02:10:59;;;;;;;;;;;;;;;20.13;49.44;99981.94;4940546;28;3275;-70
2023/03/23 02:13:24;;;;;;;;;;;;;;;20.08;49.60;99970.28;4932773;28;3029;-70
2023/03/23 02:15:53;;;;;;;;;;;;;;;20.09;49.46;99973.91;4956325;28;3101;-70
2023/03/23 02:18:37;;;;;;;;;;;;;;;20.11;49.49;99970.38;4943681;28;1969;-70
2023/03/23 02:21:08;;;;;;;;;;;;;;;20.11;49.47;99964.63;4955870;28;3288;-70
2023/03/23 02:23:50;;;;;;;;;;;;;;;20.09;49.55;99962.44;4943486;28;2533;-70
2023/03/23 02:26:34;;;;;;;;;;;;;;;20.10;49.56;99969.63;4946120;28;2816;-70
2023/03/23 02:29:13;;;;;;;;;;;;;;;20.08;49.41;99978.91;4958482;28;3017;-70
2023/03/23 02:31:58;;;;;;;;;;;;;;;20.09;49.37;99974.66;4955356;28;2889;-70
2023/03/23 02:42:49;;;;;;;;;;;;;;;20.06;49.38;99967.34;4956936;28;1972;-70
2023/03/23 02:45:19;;;;;;;;;;;;;;;20.06;49.50;99970.22;4940579;28;2797;-70
2023/03/23 02:47:45;;;;;;;;;;;;;;;20.05;49.36;99974.50;4937345;28;2790;-70
2023/03/23 02:50:11;;;;;;;;;;;;;;;20.05;49.54;99968.75;4959446;28;3267;-70
2023/03/23 02:52:36;;;;;;;;;;;;;;;20.05;49.72;99971.63;4943400;28;2240;-70
2023/03/23 02:55:02;;;;;;;;;;;;;;;20.05;49.46;99956.53;4942011;28;3223;-70
2023/03/23 02:57:27;;;;;;;;;;;;;;;20.04;49.57;99955.81;4949734;28;2956;-70
2023/03/23 02:59:54;;;;;;;;;;;;;;;20.05;49.54;99951.53;4949714;28;3005;-70
2023/03/23 03:02:29;;;;;;;;;;;;;;;20.04;49.49;99955.81;4962407;28;2733;-70
2023/03/23 03:05:09;;;;;;;;;;;;;;;20.02;49.56;99964.34;4942084;28;3141;-70
2023/03/23 03:07:49;;;;;;;;;;;;;;;20.03;49.64;99954.31;4961256;28;3060;-70
2023/03/23 03:10:19;;;;;;;;;;;;;;;20.02;49.60;99947.13;4943518;28;3166;-71
2023/03/23 03:12:44;;;;;;;;;;;;;;;20.02;49.52;99947.13;4952044;28;2232;-71
2023/03/23 03:15:15;;;;;;;;;;;;;;;20.01;49.55;99939.88;4968166;28;2377;-71
2023/03/23 03:17:43;;;;;;;;;;;;;;;20.01;49.58;99936.28;4951096;28;1730;-70
2023/03/23 03:20:13;;;;;;;;;;;;;;;20.03;49.39;99953.59;4961166;28;2957;-71
2023/03/23 03:22:38;;;;;;;;;;;;;;;20.02;49.53;99955.75;4952074;28;2889;-71
2023/03/23 03:25:04;;;;;;;;;;;;;;;20.02;49.59;99960.72;4947992;28;2933;-70
2023/03/23 03:27:31;;;;;;;;;;;;;;;20.02;49.31;99958.59;4951174;28;1763;-71
2023/03/23 03:30:11;;;;;;;;;;;;;;;20.02;49.42;99958.59;4964522;28;2885;-71
2023/03/23 03:32:44;;;;;;;;;;;;;;;19.99;49.61;99954.19;4939926;28;2789;-71
2023/03/23 03:35:10;;;;;;;;;;;;;;;20.02;49.45;99961.47;4940875;28;3286;-71
2023/03/23 03:37:38;;;;;;;;;;;;;;;20.02;49.54;99952.09;4949230;28;3058;-70
2023/03/23 03:40:10;;;;;;;;;;;;;;;20.04;49.55;99950.06;4944679;28;3202;-71
2023/03/23 03:42:36;;;;;;;;;;;;;;;20.05;49.34;99940.03;4964075;28;2863;-70
2023/03/23 03:45:01;;;;;;;;;;;;;;;20.05;49.40;99940.03;4967210;28;2689;-71
2023/03/23 03:47:27;;;;;;;;;;;;;;;20.06;49.52;99947.22;4964004;28;2858;-70
2023/03/23 03:49:53;;;;;;;;;;;;;;;20.08;49.42;99941.56;4948943;28;2856;-70
2023/03/23 03:52:18;;;;;;;;;;;;;;;20.09;49.64;99943.03;4961543;28;2863;-70
2023/03/23 03:54:44;;;;;;;;;;;;;;;20.11;49.41;99944.50;4958720;28;3352;-70
2023/03/23 03:57:09;;;;;;;;;;;;;;;20.13;49.39;99944.56;4956934;28;2485;-70
2023/03/23 03:59:55;;;;;;;;;;;;;;;20.13;49.27;99935.94;4961483;28;3119;-70
2023/03/23 04:02:26;;;;;;;;;;;;;;;20.15;49.50;99936.00;4959850;28;2783;-71
2023/03/23 04:04:53;;;;;;;;;;;;;;;20.15;49.44;99941.75;4945167;28;3084;-70
2023/03/23 04:07:18;;;;;;;;;;;;;;;20.15;49.71;99933.13;4958256;28;2899;-71
2023/03/23 04:09:46;;;;;;;;;;;;;;;20.15;49.50;99918.78;4964401;28;2888;-71
2023/03/23 04:12:12;;;;;;;;;;;;;;;20.13;49.68;99922.31;4945943;28;3114;-71
2023/03/23 04:15:13;;;;;;;;;;;;;;;20.15;50.02;99936.00;4965119;28;2909;-71
2023/03/23 04:17:40;;;;;;;;;;;;;;;20.14;50.08;99934.56;4938575;28;2945;-71
2023/03/23 04:20:08;;;;;;;;;;;;;;;20.14;49.91;99940.31;4947399;28;2955;-71
2023/03/23 04:22:33;;;;;;;;;;;;;;;20.13;49.90;99930.91;4963117;28;2843;-70
2023/03/23 04:25:02;;;;;;;;;;;;;;;20.13;50.03;99933.06;4946482;28;3190;-71
2023/03/23 04:27:28;;;;;;;;;;;;;;;20.14;49.98;99948.91;4955470;28;2863;-70
2023/03/23 04:29:56;;;;;;;;;;;;;;;19.86;48.82;99952.31;4950049;28;1962;-71
2023/03/23 04:32:45;;;;;;;;;;;;;;;19.09;48.16;99939.53;4964673;28;2796;-71
2023/03/23 04:35:13;;;;;;;;;;;;;;;19.37;47.71;99933.34;4954510;28;3372;-70
2023/03/23 04:37:50;;;;;;;;;;;;;;;19.61;47.17;99937.09;4955730;28;3131;-70
2023/03/23 04:40:18;;;;;;;;;;;;;;;19.74;46.95;99955.50;4947331;28;3442;-69
2023/03/23 04:42:57;;;;;;;;;;;;;;;19.83;46.96;99965.13;4944726;28;3162;-69
2023/03/23 04:45:31;;;;;;;;;;;;;;;19.85;47.08;99951.56;4946191;28;2488;-69
2023/03/23 04:48:01;;;;;;;;;;;;;;;19.88;47.26;99966.72;4959430;28;2538;-69
2023/03/23 04:50:34;;;;;;;;;;;;;;;19.90;47.54;99968.94;4961175;28;2942;-70
2023/03/23 04:53:09;;;;;;;;;;;;;;;19.90;47.60;99975.41;4963879;28;3287;-69
2023/03/23 04:55:38;;;;;;;;;;;;;;;19.91;47.72;99976.19;4948118;28;2596;-69
2023/03/23 04:58:06;;;;;;;;;;;;;;;19.91;47.74;99968.28;4947725;28;2477;-69
2023/03/23 05:00:54;;;;;;;;;;;;;;;19.90;47.99;99963.94;4922009;28;3687;-69
2023/03/23 05:03:22;;;;;;;;;;;;;;;19.90;47.98;99952.44;4946364;28;2576;-69
2023/03/23 05:05:51;;;;;;;;;;;;;;;19.90;48.10;99958.19;4942353;28;3288;-69
2023/03/23 05:08:19;;;;;;;;;;;;;;;19.90;48.17;99963.19;4955238;28;3250;-69
2023/03/23 05:10:51;;;;;;;;;;;;;;;19.90;48.20;99957.44;4953297;28;3193;-69
2023/03/23 05:13:17;;;;;;;;;;;;;;;19.88;48.26;99949.50;4947975;28;2249;-69
2023/03/23 05:15:46;;;;;;;;;;;;;;;19.88;48.23;99960.97;4942425;28;1771;-69
2023/03/23 05:18:11;;;;;;;;;;;;;;;19.87;48.29;99953.78;4964343;28;2439;-69
2023/03/23 05:20:37;;;;;;;;;;;;;;;19.86;48.38;99963.81;4936434;28;3025;-69
2023/03/23 05:23:08;;;;;;;;;;;;;;;19.86;48.42;99958.06;4940917;28;3467;-69
2023/03/23 05:25:39;;;;;;;;;;;;;;;19.86;48.30;99963.81;4944637;28;3392;-69
2023/03/23 05:28:08;;;;;;;;;;;;;;;19.84;48.43;99967.34;4944997;28;2593;-69
2023/03/23 05:30:48;;;;;;;;;;;;;;;19.82;48.49;99964.41;4940785;28;3606;-69
2023/03/23 05:33:15;;;;;;;;;;;;;;;19.83;48.43;99970.88;4945002;28;3241;-68
2023/03/23 05:36:18;;;;;;;;;;;;;;;19.82;48.58;99978.03;4954540;28;2549;-69
2023/03/23 05:39:05;;;;;;;;;;;;;;;19.81;48.62;99980.19;4931797;28;3132;-69
2023/03/23 05:41:49;;;;;;;;;;;;;;;19.81;48.63;99973.66;4942350;28;3280;-69
2023/03/23 05:44:14;;;;;;;;;;;;;;;19.81;48.65;99967.94;4956488;28;3219;-69
2023/03/23 05:46:50;;;;;;;;;;;;;;;19.80;48.64;99966.47;4946630;28;2505;-69
2023/03/23 05:49:16;;;;;;;;;;;;;;;19.80;48.59;99972.22;4940565;28;2670;-69
2023/03/23 05:51:49;;;;;;;;;;;;;;;19.80;48.69;99980.84;4944113;28;3066;-69
2023/03/23 05:54:16;;;;;;;;;;;;;;;19.80;48.69;99983.72;4941082;28;2271;-69
2023/03/23 05:56:43;;;;;;;;;;;;;;;19.82;48.66;99992.41;4956873;28;3632;-70
2023/03/23 05:59:28;;;;;;;;;;;;;;;19.85;48.63;99985.31;4946354;28;2637;-69
2023/03/23 06:01:55;;;;;;;;;;;;;;;19.85;48.65;99979.56;4943949;28;2814;-68
2023/03/23 06:04:24;;;;;;;;;;;;;;;19.85;48.68;99982.44;4959188;28;3039;-69
2023/03/23 06:07:02;;;;;;;;;;;;;;;19.88;48.61;99989.72;4943452;28;3047;-68
2023/03/23 06:09:27;;;;;;;;;;;;;;;19.93;48.52;99996.34;4953861;28;2663;-67
2023/03/23 06:12:25;;;;;;;;;;;;;;;19.96;48.41;99992.88;4946492;28;2538;-68
2023/03/23 06:15:18;;;;;;;;;;;;;;;19.96;48.62;99995.03;4946031;28;3155;-68
2023/03/23 06:18:03;;;;;;;;;;;;;;;19.95;48.77;100000.03;4943250;28;2582;-67
2023/03/23 06:20:49;;;;;;;;;;;;;;;19.96;48.83;99998.63;4955485;28;3066;-68
2023/03/23 06:23:24;;;;;;;;;;;;;;;19.96;48.87;99995.75;4935081;28;3437;-66
2023/03/23 06:25:53;;;;;;;;;;;;;;;19.99;48.92;99994.41;4942353;28;2906;-68
2023/03/23 06:28:18;;;;;;;;;;;;;;;20.00;49.34;99998.78;4962929;28;1704;-69
2023/03/23 06:30:46;;;;;;;;;;;;;;;20.09;49.15;100003.38;4952092;28;1918;-70
2023/03/23 06:33:12;;;;;;;;;;;;;;;20.07;49.45;100000.44;4945551;28;2564;-68
2023/03/23 06:35:56;;;;;;;;;;;;;;;20.01;49.62;100005.97;4950312;28;3278;-69
2023/03/23 06:38:38;;;;;;;;;;;;;;;20.00;49.35;99995.91;4944769;28;2432;-69
2023/03/23 06:41:04;;;;;;;;;;;;;;;20.03;49.33;100000.31;4938943;28;2782;-68
2023/03/23 06:43:29;;;;;;;;;;;;;;;20.06;49.87;99995.34;4948573;28;1671;-68
2023/03/23 06:46:09;;;;;;;;;;;;;;;20.07;50.41;100006.19;4943475;28;2692;-68
2023/03/23 06:48:40;;;;;;;;;;;;;;;20.07;50.02;100000.44;4964042;28;2482;-68
2023/03/23 06:51:07;;;;;;;;;;;;;;;20.09;50.38;100008.41;4938698;28;3094;-73
2023/03/23 06:53:33;;;;;;;;;;;;;;;20.08;50.89;100001.91;4947519;28;2898;-69
2023/03/23 06:56:00;;;;;;;;;;;;;;;20.07;50.66;100002.59;4942100;28;3246;-69
2023/03/23 06:58:25;;;;;;;;;;;;;;;20.07;51.00;100011.94;4942825;28;2591;-69
2023/03/23 07:00:56;;;;;;;;;;;;;;;20.08;50.97;100007.66;4945228;28;1795;-69
2023/03/23 07:03:23;;;;;;;;;;;;;;;20.07;51.09;99996.84;4962790;28;1753;-69
2023/03/23 07:05:48;;;;;;;;;;;;;;;20.07;51.19;99991.09;4953999;28;3140;-69
2023/03/23 07:08:16;;;;;;;;;;;;;;;20.08;51.31;99990.41;4957050;28;3667;-69
2023/03/23 07:10:47;;;;;;;;;;;;;;;20.07;51.20;99976.72;4943718;28;3020;-69
2023/03/23 07:13:12;;;;;;;;;;;;;;;20.05;51.39;99991.75;4961922;28;2847;-70
2023/03/23 07:15:45;;;;;;;;;;;;;;;20.08;51.04;100001.91;4944358;28;2555;-70
2023/03/23 07:18:11;;;;;;;;;;;;;;;20.11;51.16;100007.72;4942915;28;2966;-70
2023/03/23 07:20:41;;;;;;;;;;;;;;;20.11;51.49;99993.34;4945810;28;3104;-70
2023/03/23 07:23:07;;;;;;;;;;;;;;;19.45;51.36;99988.94;4942746;28;2842;-74
2023/03/23 07:25:48;;;;;;;;;;;;;;;19.66;52.11;99984.66;4936455;28;3428;-73
2023/03/23 07:28:18;;;;;;;;;;;;;;;19.91;52.04;99985.53;4959909;28;3077;-73
2023/03/23 07:30:44;;;;;;;;;;;;;;;20.00;51.83;99972.91;4952261;28;3544;-74
2023/03/23 07:33:10;;;;;;;;;;;;;;;20.04;51.79;99967.31;4941812;28;3042;-74
2023/03/23 07:35:36;;;;;;;;;;;;;;;20.08;51.59;99958.78;4943088;28;3225;-73
2023/03/23 07:38:04;;;;;;;;;;;;;;;20.09;51.35;99945.91;4961301;28;3208;-69
2023/03/23 07:40:33;;;;;;;;;;;;;;;20.27;51.66;99947.88;4937421;28;3862;-67
2023/03/23 07:43:01;;;;;;;;;;;;;;;20.35;51.62;99948.16;4952291;28;4654;-71
2023/03/23 07:45:58;;;;;;;;;;;;;;;20.45;51.48;99953.50;4939987;28;2796;-70
2023/03/23 07:48:31;;;;;;;;;;;;;;;20.59;51.56;99970.50;4941404;28;4422;-68
2023/03/23 07:50:57;;;;;;;;;;;;;;;20.68;51.33;99977.97;4964846;28;2863;-67
2023/03/23 07:53:23;;;;;;;;;;;;;;;20.71;51.36;99985.25;4966918;28;2835;-69
2023/03/23 07:55:57;;;;;;;;;;;;;;;20.72;50.87;99992.47;4944890;28;3492;-68
2023/03/23 07:58:46;;;;;;;;;;;;;;;20.76;50.69;99994.75;4963722;28;3337;-67
2023/03/23 08:01:12;;;;;;;;;;;;;;;20.77;50.68;99999.81;4945012;28;3320;-68
2023/03/23 08:03:37;;;;;;;;;;;;;;;20.76;50.80;99991.88;4944585;28;3411;-75
2023/03/23 08:06:12;;;;;;;;;;;;;;;20.69;51.16;99996.72;4946347;28;3261;-67
2023/03/23 08:09:08;;;;;;;;;;;;;;;20.69;50.79;100002.47;4944526;28;3269;-64
2023/03/23 08:12:00;;;;;;;;;;;;;;;20.68;51.41;100000.97;4961679;28;3418;-66
2023/03/23 08:14:49;;;;;;;;;;;;;;;20.76;51.12;100000.50;4950034;28;3368;-65
2023/03/23 08:17:40;;;;;;;;;;;;;;;20.77;50.92;100002.69;4951842;28;3212;-67
2023/03/23 08:20:25;;;;;;;;;;;;;;;20.88;50.56;100007.38;4948155;28;3284;-66
2023/03/23 08:23:06;;;;;;;;;;;;;;;21.01;50.14;100010.63;4964768;28;3113;-68
2023/03/23 08:25:49;;;;;;;;;;;;;;;21.06;49.63;99998.56;4965623;28;3261;-73
2023/03/23 08:28:44;;;;;;;;;;;;;;;20.97;50.04;99990.34;4936463;28;3267;-67
2023/03/23 08:31:38;;;;;;;;;;;;;;;20.89;50.08;99973.56;4944206;28;3275;-69
2023/03/23 08:34:18;;;;;;;;;;;;;;;20.70;50.24;100001.78;4962380;28;3176;-69
2023/03/23 08:37:12;;;;;;;;;;;;;;;20.63;50.54;100010.88;4948643;28;4428;-64
2023/03/23 08:39:57;;;;;;;;;;;;;;;20.71;50.40;100014.03;4954755;28;4465;-64
2023/03/23 08:42:42;;;;;;;;;;;;;;;20.77;50.60;100014.22;4963615;28;2995;-65
2023/03/23 08:45:30;;;;;;;;;;;;;;;20.66;50.57;100015.28;4955030;28;4371;-64
2023/03/23 08:48:17;;;;;;;;;;;;;;;20.66;50.85;100010.28;4947951;28;3548;-63
2023/03/23 08:51:08;;;;;;;;;;;;;;;20.70;51.16;100009.66;4940918;28;4080;-65
2023/03/23 08:54:04;;;;;;;;;;;;;;;20.63;50.60;100005.13;4956494;28;3469;-61
2023/03/23 08:56:48;;;;;;;;;;;;;;;20.51;50.91;100016.97;4956654;28;4421;-62
2023/03/23 08:59:32;;;;;;;;;;;;;;;20.60;50.79;100023.75;4959977;28;3477;-65
2023/03/23 09:02:06;;;;;;;;;;;;;;;20.73;50.47;100025.59;4962840;28;3042;-65
2023/03/23 09:04:45;;;;;;;;;;;;;;;20.78;50.47;100032.94;4958462;28;3215;-64
2023/03/23 09:07:47;;;;;;;;;;;;;;;20.89;50.00;100026.13;4919077;28;2559;-68
2023/03/23 09:10:13;;;;;;;;;;;;;;;20.89;50.05;100028.22;4960106;28;3181;-66
2023/03/23 09:12:38;;;;;;;;;;;;;;;20.85;50.16;100025.97;4961001;28;2979;-61
2023/03/23 09:15:08;;;;;;;;;;;;;;;20.80;50.08;100017.88;4960082;28;4558;-63
2023/03/23 09:17:34;;;;;;;;;;;;;;;20.85;50.30;100002.97;4962121;28;3174;-64
2023/03/23 09:19:59;;;;;;;;;;;;;;;20.87;49.43;100020.28;4965143;28;2550;-64
2023/03/23 09:22:24;;;;;;;;;;;;;;;20.94;49.74;100024.09;4960512;28;2955;-74
2023/03/23 09:24:51;;;;;;;;;;;;;;;21.08;49.54;100000.75;4959309;28;4425;-66
2023/03/23 09:27:16;;;;;;;;;;;;;;;21.13;49.38;100008.84;4958704;28;2843;-70
2023/03/23 09:29:44;;;;;;;;;;;;;;;21.18;49.27;100015.44;4956967;28;3016;-69
2023/03/23 09:32:09;;;;;;;;;;;;;;;21.09;49.16;100005.81;4961115;28;4340;-63
2023/03/23 09:34:35;;;;;;;;;;;;;;;21.15;49.23;100004.56;4963616;28;1913;-65
2023/03/23 09:37:04;;;;;;;;;;;;;;;21.17;49.08;100016.88;4960531;28;4561;-62
2023/03/23 09:39:29;;;;;;;;;;;;;;;20.96;49.49;100017.66;4946850;28;1876;-60
2023/03/23 09:41:57;;;;;;;;;;;;;;;21.11;49.10;100019.56;4958471;28;4801;-61
2023/03/23 09:44:30;;;;;;;;;;;;;;;21.03;49.22;100030.84;4965695;28;1595;-63
2023/03/23 09:47:00;;;;;;;;;;;;;;;21.14;49.21;100026.84;4949822;28;1794;-61
2023/03/23 09:49:26;;;;;;;;;;;;;;;21.03;49.36;100022.19;4963204;28;1625;-64
2023/03/23 09:52:02;;;;;;;;;;;;;;;20.95;49.29;100022.69;4966591;28;1918;-65
2023/03/23 09:54:29;;;;;;;;;;;;;;;20.80;49.75;100024.38;4960147;28;1670;-62
2023/03/23 09:56:55;;;;;;;;;;;;;;;20.77;49.75;100031.47;4964553;28;1593;-65
2023/03/23 09:59:24;;;;;;;;;;;;;;;20.76;50.10;100032.16;4962505;28;2752;-60
2023/03/23 10:01:50;;;;;;;;;;;;;;;20.78;49.75;100044.47;4959784;28;3086;-68
2023/03/23 10:04:21;;;;;;;;;;;;;;;20.91;49.74;100039.81;4962365;28;2963;-60
2023/03/23 10:06:47;;;;;;;;;;;;;;;21.24;48.95;100024.28;4963227;28;2684;-63
2023/03/23 10:09:14;;;;;;;;;;;;;;;21.07;48.93;100030.94;4955681;28;3232;-61
2023/03/23 10:12:01;;;;;;;;;;;;;;;20.89;49.31;100025.34;4947608;28;4378;-66
2023/03/23 10:14:28;;;;;;;;;;;;;;;21.38;48.75;100031.84;4953702;28;4460;-63
2023/03/23 10:17:13;;;;;;;;;;;;;;;21.13;48.64;100025.38;4963041;28;3009;-63
2023/03/23 10:19:53;;;;;;;;;;;;;;;20.83;49.33;100020.16;4960326;28;3350;-62
2023/03/23 10:22:21;;;;;;;;;;;;;;;20.79;49.44;100010.66;4947901;28;4512;-62
2023/03/23 10:24:52;;;;;;;;;;;;;;;20.75;49.78;100017.03;4944439;28;2921;-60
2023/03/23 10:27:31;;;;;;;;;;;;;;;20.93;49.38;100014.69;4955888;28;3266;-71
2023/03/23 10:30:11;;;;;;;;;;;;;;;20.96;49.13;100004.00;4951372;28;3660;-72
2023/03/23 10:32:39;;;;;;;;;;;;;;;20.96;49.20;100000.38;4957949;28;3250;-72
2023/03/23 10:35:05;;;;;;;;;;;;;;;20.92;49.20;100016.13;4949084;28;4638;-71
2023/03/23 10:37:31;;;;;;;;;;;;;;;21.16;48.96;100014.66;4941929;28;5062;-75
2023/03/23 10:39:58;;;;;;;;;;;;;;;20.96;48.86;100006.13;4934349;28;3224;-70
2023/03/23 10:42:24;;;;;;;;;;;;;;;20.93;49.00;99999.59;4958476;28;2984;-70
2023/03/23 10:44:49;;;;;;;;;;;;;;;20.95;49.07;100010.44;4949557;28;4327;-70
2023/03/23 10:47:17;;;;;;;;;;;;;;;20.92;49.08;100006.75;4928890;28;3283;-69
2023/03/23 10:49:56;;;;;;;;;;;;;;;20.92;49.05;100001.72;4957412;28;4378;-70
2023/03/23 10:52:29;;;;;;;;;;;;;;;20.92;48.94;100006.75;4932499;28;3183;-68
2023/03/23 10:55:05;;;;;;;;;;;;;;;20.91;49.05;99999.53;4945195;28;3134;-68
2023/03/23 10:57:31;;;;;;;;;;;;;;;20.90;48.96;99998.78;4957407;28;3217;-68
2023/03/23 11:00:06;;;;;;;;;;;;;;;20.88;48.82;100007.38;4955792;28;3244;-69
2023/03/23 11:02:35;;;;;;;;;;;;;;;20.88;48.85;100001.59;4952261;28;4025;-68
2023/03/23 11:05:01;;;;;;;;;;;;;;;20.88;48.84;100015.25;4941508;28;2948;-68
2023/03/23 11:07:28;;;;;;;;;;;;;;;20.88;48.92;100024.63;4934665;28;3278;-68
2023/03/23 11:09:54;;;;;;;;;;;;;;;20.88;48.86;100024.63;4950445;28;3303;-68
2023/03/23 11:12:20;;;;;;;;;;;;;;;20.87;48.87;100016.69;4950861;28;3773;-68
2023/03/23 11:14:45;;;;;;;;;;;;;;;20.87;48.85;100023.16;4956764;28;3222;-68
2023/03/23 11:17:20;;;;;;;;;;;;;;;20.86;48.98;100024.56;4953198;28;3361;-68
2023/03/23 11:19:46;;;;;;;;;;;;;;;20.86;48.85;100024.56;4956732;28;3080;-69
2023/03/23 11:22:17;;;;;;;;;;;;;;;20.85;48.72;100031.75;4956973;28;4040;-68
2023/03/23 11:24:44;;;;;;;;;;;;;;;20.87;48.78;100040.44;4954275;28;3210;-68
2023/03/23 11:27:10;;;;;;;;;;;;;;;20.86;48.77;100036.06;4951544;28;3149;-68
2023/03/23 11:29:36;;;;;;;;;;;;;;;20.87;48.71;100028.19;4942161;28;3578;-68
2023/03/23 11:32:07;;;;;;;;;;;;;;;20.86;48.76;100038.22;4938433;28;3121;-70
2023/03/23 11:34:36;;;;;;;;;;;;;;;20.80;49.07;100041.66;4954266;28;3091;-72
2023/03/23 11:37:21;;;;;;;;;;;;;;;20.85;48.72;100043.25;4925330;28;4203;-63
2023/03/23 11:39:53;;;;;;;;;;;;;;;20.87;48.85;100051.94;4955045;28;4225;-62
2023/03/23 11:42:19;;;;;;;;;;;;;;;20.91;48.57;100046.31;4957642;28;3106;-62
2023/03/23 11:44:45;;;;;;;;;;;;;;;20.94;48.65;100038.47;4963049;28;3160;-63
2023/03/23 11:47:29;;;;;;;;;;;;;;;20.95;48.69;100036.34;4957118;28;2923;-64
2023/03/23 11:50:06;;;;;;;;;;;;;;;20.93;48.40;100031.25;4956365;28;3519;-63
2023/03/23 11:52:50;;;;;;;;;;;;;;;20.90;48.50;100024.69;4959770;28;4452;-65
2023/03/23 11:55:18;;;;;;;;;;;;;;;20.88;48.60;100044.03;4957516;28;3075;-62
2023/03/23 11:57:43;;;;;;;;;;;;;;;20.93;48.73;100037.72;4960923;28;2853;-68
2023/03/23 12:00:15;;;;;;;;;;;;;;;20.90;48.43;100033.31;4957375;28;4644;-70
2023/03/23 12:03:00;;;;;;;;;;;;;;;20.86;48.33;100038.94;4954275;28;3253;-70
2023/03/23 12:05:30;;;;;;;;;;;;;;;20.86;48.41;100038.94;4959713;28;3528;-70
2023/03/23 12:08:16;;;;;;;;;;;;;;;20.83;48.87;100037.44;4947173;28;3219;-71
2023/03/23 12:10:46;;;;;;;;;;;;;;;21.05;48.95;100043.16;4955245;28;4170;-76
2023/03/23 12:13:15;;;;;;;;;;;;;;;21.16;48.63;100043.44;4959884;28;2967;-68
2023/03/23 12:15:51;;;;;;;;;;;;;;;21.23;48.32;100028.53;4955186;28;3473;-71
2023/03/23 12:18:35;;;;;;;;;;;;;;;21.28;48.05;100043.78;4959855;28;3697;-67
2023/03/23 12:21:11;;;;;;;;;;;;;;;21.32;47.82;100032.41;4956798;28;3353;-73
2023/03/23 12:23:58;;;;;;;;;;;;;;;21.29;47.45;100025.84;4952318;28;3113;-75
2023/03/23 12:26:30;;;;;;;;;;;;;;;21.25;47.63;100025.72;4942658;28;2947;-72
2023/03/23 12:28:59;;;;;;;;;;;;;;;21.23;48.06;100030.69;4955255;28;3235;-68
2023/03/23 12:31:26;;;;;;;;;;;;;;;21.18;48.19;100020.47;4942238;28;3124;-75
2023/03/23 12:34:18;;;;;;;;;;;;;;;21.43;47.81;100033.47;4953145;28;3122;-71
2023/03/23 12:37:02;;;;;;;;;;;;;;;21.41;47.32;100013.97;4947728;28;3102;-72
2023/03/23 12:39:45;;;;;;;;;;;;;;;21.26;47.22;100020.72;4951444;28;3162;-73
2023/03/23 12:42:23;;;;;;;;;;;;;;;21.07;47.76;100005.03;4953063;28;3288;-73
2023/03/23 12:45:08;;;;;;;;;;;;;;;20.99;47.75;99987.53;4955478;28;3569;-72
2023/03/23 12:47:39;;;;;;;;;;;;;;;20.98;47.81;99977.41;4957235;28;2995;-72
2023/03/23 12:50:14;;;;;;;;;;;;;;;20.95;47.96;99981.66;4943377;28;2986;-73
2023/03/23 12:52:57;;;;;;;;;;;;;;;20.95;48.08;99999.66;4949022;28;3248;-72
2023/03/23 12:55:25;;;;;;;;;;;;;;;20.97;47.94;100008.34;4951711;28;3075;-71
2023/03/23 12:57:54;;;;;;;;;;;;;;;20.98;47.91;100009.06;4954286;28;3128;-73
2023/03/23 13:00:19;;;;;;;;;;;;;;;20.96;47.91;100009.78;4937608;28;3019;-73
2023/03/23 13:02:46;;;;;;;;;;;;;;;21.00;47.95;100012.03;4956608;28;3345;-77
2023/03/23 13:05:26;;;;;;;;;;;;;;;21.06;47.79;100015.09;4946456;28;2885;-75
2023/03/23 13:07:53;;;;;;;;;;;;;;;21.21;48.69;100014.13;4942489;28;4480;-71
2023/03/23 13:10:22;;;;;;;;;;;;;;;21.65;47.84;100019.69;4957754;28;3697;-71
2023/03/23 13:12:47;;;;;;;;;;;;;;;21.72;47.48;100006.94;4962645;28;3353;-69
2023/03/23 13:15:22;;;;;;;;;;;;;;;21.79;47.41;100004.22;4959662;28;2733;-71
2023/03/23 13:18:25;;;;;;;;;;;;;;;21.94;47.18;100014.69;4962678;28;4390;-70
2023/03/23 13:20:55;;;;;;;;;;;;;;;22.05;47.21;100010.66;4898917;29;2751;-71
2023/03/23 13:23:40;;;;;;;;;;;;;;;22.12;46.93;100000.03;4888271;29;2749;-70